createdAt,value
2018-08-31T00:00:15.438Z,53.75
2018-08-31T00:02:47.305Z,54.60
2018-08-31T00:05:38.186Z,55.60
2018-08-31T00:09:17.829Z,54.58
2018-08-31T00:12:25.637Z,57.56
2018-08-31T00:14:54.777Z,58.57
2018-08-31T00:17:23.753Z,55.22
2018-08-31T00:19:52.764Z,54.38
2018-08-31T00:22:21.726Z,54.86
2018-08-31T00:25:01.449Z,54.66
2018-08-31T00:27:41.357Z,54.79
2018-08-31T00:31:22.058Z,54.91
2018-08-31T00:34:03.723Z,56.34
2018-08-31T00:36:43.733Z,59.12
2018-08-31T00:40:27.950Z,58.63
2018-08-31T00:43:18.710Z,59.88
2018-08-31T00:45:47.745Z,56.42
2018-08-31T00:48:16.669Z,56.11
2018-08-31T00:50:45.697Z,56.08
2018-08-31T00:53:14.811Z,57.77
2018-08-31T00:55:43.809Z,57.59
2018-08-31T00:58:12.865Z,59.22
2018-08-31T01:00:42.192Z,59.32
2018-08-31T01:03:11.142Z,58.56
2018-08-31T01:05:40.186Z,59.03
2018-08-31T01:08:09.251Z,58.73
2018-08-31T01:10:38.245Z,59.14
2018-08-31T01:13:07.238Z,58.29
2018-08-31T01:15:36.256Z,59.86
2018-08-31T01:18:05.284Z,58.58
2018-08-31T01:20:34.306Z,58.94
2018-08-31T01:23:03.302Z,58.75
2018-08-31T01:25:33.758Z,60.94
2018-08-31T01:28:02.972Z,60.29
2018-08-31T01:30:31.969Z,58.05
2018-08-31T01:33:00.942Z,58.66
2018-08-31T01:35:29.966Z,59.83
2018-08-31T01:37:58.998Z,58.42
2018-08-31T01:40:28.053Z,57.82
2018-08-31T01:42:57.068Z,57.27
2018-08-31T01:45:26.139Z,58.58
2018-08-31T01:47:55.129Z,58.05
2018-08-31T01:50:24.165Z,58.42
2018-08-31T01:52:53.150Z,57.00
2018-08-31T01:55:27.313Z,57.09
2018-08-31T01:57:56.308Z,56.66
2018-08-31T02:00:25.484Z,55.60
2018-08-31T02:02:54.499Z,55.19
2018-08-31T02:05:23.540Z,56.77
2018-08-31T02:07:52.575Z,57.30
2018-08-31T02:10:21.540Z,59.80
2018-08-31T02:12:50.657Z,59.47
2018-08-31T02:15:19.661Z,57.72
2018-08-31T02:17:48.762Z,57.60
2018-08-31T02:20:17.717Z,56.86
2018-08-31T02:22:46.824Z,56.88
2018-08-31T02:25:15.799Z,56.78
2018-08-31T02:27:44.892Z,55.21
2018-08-31T02:30:13.966Z,55.21
2018-08-31T02:32:42.994Z,56.25
2018-08-31T02:35:11.924Z,55.60
2018-08-31T02:37:40.913Z,55.53
2018-08-31T02:40:10.186Z,55.70
2018-08-31T02:42:39.185Z,58.02
2018-08-31T02:45:08.172Z,58.06
2018-08-31T02:47:37.320Z,59.74
2018-08-31T02:50:06.323Z,57.58
2018-08-31T02:52:35.393Z,57.36
2018-08-31T02:55:04.402Z,57.05
2018-08-31T02:57:33.438Z,57.26
2018-08-31T03:00:02.431Z,56.63
2018-08-31T03:02:31.529Z,57.06
2018-08-31T03:05:00.530Z,59.83
2018-08-31T03:07:29.517Z,58.11
2018-08-31T03:09:58.934Z,58.74
2018-08-31T03:12:27.946Z,57.86
2018-08-31T03:14:56.932Z,57.17
2018-08-31T03:17:25.945Z,57.09
2018-08-31T03:19:54.945Z,56.96
2018-08-31T03:22:23.983Z,57.31
2018-08-31T03:24:53.017Z,56.16
2018-08-31T03:27:22.026Z,54.83
2018-08-31T03:29:50.994Z,54.75
2018-08-31T03:32:19.979Z,54.89
2018-08-31T03:34:48.965Z,54.44
2018-08-31T03:37:17.954Z,55.59
2018-08-31T03:39:46.983Z,60.85
2018-08-31T03:42:16.034Z,62.15
2018-08-31T03:44:45.002Z,61.43
2018-08-31T03:47:14.083Z,62.26
2018-08-31T03:49:43.160Z,61.03
2018-08-31T03:52:12.138Z,59.70
2018-08-31T03:54:41.130Z,59.11
2018-08-31T03:57:10.677Z,58.93
2018-08-31T03:59:39.846Z,58.67
2018-08-31T04:02:08.942Z,59.05
2018-08-31T04:04:37.936Z,59.34
2018-08-31T04:07:06.920Z,59.70
2018-08-31T04:09:35.937Z,58.58
2018-08-31T04:12:04.947Z,57.84
2018-08-31T04:14:33.978Z,58.33
2018-08-31T04:17:03.135Z,59.13
2018-08-31T04:19:32.087Z,58.54
2018-08-31T04:22:01.238Z,59.28
2018-08-31T04:24:30.689Z,59.51
2018-08-31T04:26:59.709Z,59.08
2018-08-31T04:29:28.637Z,58.67
2018-08-31T04:31:57.632Z,58.77
2018-08-31T04:34:26.770Z,59.83
2018-08-31T04:36:55.931Z,59.37
2018-08-31T04:39:24.930Z,59.60
2018-08-31T04:41:53.912Z,59.90
2018-08-31T04:44:22.922Z,59.67
2018-08-31T04:46:52.142Z,58.95
2018-08-31T04:49:21.153Z,59.08
2018-08-31T04:51:50.243Z,59.20
2018-08-31T04:54:19.323Z,59.79
2018-08-31T04:56:48.373Z,59.89
2018-08-31T04:59:17.334Z,59.45
2018-08-31T05:01:46.282Z,60.07
2018-08-31T05:04:15.360Z,59.45
2018-08-31T05:06:44.338Z,59.99
2018-08-31T05:09:13.696Z,59.18
2018-08-31T05:11:43.074Z,59.97
2018-08-31T05:14:12.340Z,59.57
2018-08-31T05:16:41.631Z,59.58
2018-08-31T05:19:10.992Z,58.98
2018-08-31T05:21:40.308Z,59.83
2018-08-31T05:24:09.815Z,59.97
2018-08-31T05:26:38.994Z,59.11
2018-08-31T05:29:08.400Z,59.32
2018-08-31T05:31:37.726Z,59.03
2018-08-31T05:34:07.108Z,58.61
2018-08-31T05:36:36.394Z,59.45
2018-08-31T05:39:08.365Z,58.43
2018-08-31T05:41:37.645Z,58.34
2018-08-31T05:44:06.960Z,58.82
2018-08-31T05:46:36.259Z,59.04
2018-08-31T05:49:05.575Z,59.93
2018-08-31T05:51:34.727Z,58.30
2018-08-31T05:54:04.038Z,59.12
2018-08-31T05:56:33.315Z,59.26
2018-08-31T05:59:02.639Z,58.63
2018-08-31T06:01:32.885Z,59.87
2018-08-31T06:04:02.335Z,58.71
2018-08-31T06:06:31.490Z,58.46
2018-08-31T06:09:00.784Z,59.00
2018-08-31T06:11:29.906Z,58.26
2018-08-31T06:13:59.230Z,58.04
2018-08-31T06:16:28.384Z,58.08
2018-08-31T06:18:57.594Z,58.71
2018-08-31T06:21:26.829Z,58.88
2018-08-31T06:23:56.122Z,59.72
2018-08-31T06:26:25.330Z,59.53
2018-08-31T06:28:55.363Z,59.76
2018-08-31T06:31:25.253Z,60.20
2018-08-31T06:33:55.304Z,59.92
2018-08-31T06:36:25.174Z,59.16
2018-08-31T06:38:55.490Z,59.50
2018-08-31T06:41:25.362Z,59.18
2018-08-31T06:43:55.423Z,59.46
2018-08-31T06:46:24.692Z,59.49
2018-08-31T06:48:53.955Z,59.97
2018-08-31T06:51:23.261Z,59.16
2018-08-31T06:53:52.486Z,58.80
2018-08-31T06:56:22.368Z,58.80
2018-08-31T06:58:51.909Z,58.87
2018-08-31T07:01:21.805Z,58.42
2018-08-31T07:03:51.702Z,59.21
2018-08-31T07:06:21.311Z,58.64
2018-08-31T07:08:50.854Z,57.18
2018-08-31T07:11:20.666Z,57.52
2018-08-31T07:13:50.359Z,57.58
2018-08-31T07:16:20.190Z,57.17
2018-08-31T07:18:50.140Z,56.44
2018-08-31T07:21:19.633Z,56.42
2018-08-31T07:23:49.902Z,56.22
2018-08-31T07:26:26.895Z,55.44
2018-08-31T07:28:56.946Z,54.61
2018-08-31T07:31:26.920Z,55.12
2018-08-31T07:33:56.953Z,54.18
2018-08-31T07:36:27.127Z,54.70
2018-08-31T07:38:56.845Z,52.08
2018-08-31T07:41:26.351Z,53.64
2018-08-31T07:43:56.148Z,52.98
2018-08-31T07:46:25.646Z,53.47
2018-08-31T07:48:54.884Z,51.79
2018-08-31T07:51:24.190Z,52.51
2018-08-31T07:53:53.501Z,51.80
2018-08-31T07:56:22.899Z,52.52
2018-08-31T07:58:52.692Z,51.83
2018-08-31T08:01:22.492Z,53.02
2018-08-31T08:03:56.069Z,52.42
2018-08-31T08:06:26.260Z,52.48
2018-08-31T08:08:55.557Z,52.48
2018-08-31T08:11:24.739Z,49.86
2018-08-31T08:13:54.067Z,50.19
2018-08-31T08:16:23.774Z,51.00
2018-08-31T08:18:53.774Z,47.92
2018-08-31T08:21:23.924Z,46.41
2018-08-31T08:23:53.943Z,45.28
2018-08-31T08:26:23.895Z,46.14
2018-08-31T08:28:53.968Z,47.60
2018-08-31T08:31:23.906Z,49.26
2018-08-31T08:33:53.832Z,47.28
2018-08-31T08:36:23.965Z,48.18
2018-08-31T08:38:53.369Z,46.07
2018-08-31T08:41:22.566Z,45.73
2018-08-31T08:43:52.013Z,44.53
2018-08-31T08:46:21.203Z,44.93
2018-08-31T08:48:51.221Z,43.97
2018-08-31T08:51:21.153Z,45.16
2018-08-31T08:53:51.136Z,45.83
2018-08-31T08:56:21.129Z,45.60
2018-08-31T08:58:51.233Z,44.53
2018-08-31T09:01:21.157Z,43.56
2018-08-31T09:03:50.973Z,43.40
2018-08-31T09:06:20.840Z,40.88
2018-08-31T09:08:50.177Z,41.59
2018-08-31T09:11:19.393Z,43.07
2018-08-31T09:13:48.573Z,42.27
2018-08-31T09:16:17.860Z,42.78
2018-08-31T09:18:47.106Z,42.03
2018-08-31T09:21:16.360Z,42.45
2018-08-31T09:23:45.713Z,43.46
2018-08-31T09:26:15.303Z,43.30
2018-08-31T09:28:44.606Z,42.70
2018-08-31T09:31:18.363Z,44.69
2018-08-31T09:33:47.610Z,44.39
2018-08-31T09:36:16.810Z,44.05
2018-08-31T09:38:46.285Z,45.01
2018-08-31T09:41:15.594Z,44.10
2018-08-31T09:43:44.871Z,42.51
2018-08-31T09:46:14.166Z,44.30
2018-08-31T09:48:43.466Z,44.48
2018-08-31T09:51:12.645Z,44.89
2018-08-31T09:53:41.847Z,45.17
2018-08-31T09:56:11.125Z,45.35
2018-08-31T09:58:40.476Z,43.77
2018-08-31T10:01:14.739Z,45.40
2018-08-31T10:03:44.093Z,44.72
2018-08-31T10:06:13.365Z,44.10
2018-08-31T10:08:42.802Z,44.35
2018-08-31T10:11:12.007Z,45.17
2018-08-31T10:13:41.357Z,43.92
2018-08-31T10:16:10.703Z,44.68
2018-08-31T10:18:40.052Z,44.86
2018-08-31T10:21:09.762Z,43.36
2018-08-31T10:23:39.070Z,44.20
2018-08-31T10:26:08.818Z,45.12
2018-08-31T10:28:38.327Z,44.90
2018-08-31T10:31:07.784Z,45.22
2018-08-31T10:33:37.058Z,43.75
2018-08-31T10:36:06.721Z,45.26
2018-08-31T10:38:36.019Z,44.63
2018-08-31T10:41:06.276Z,44.98
2018-08-31T10:43:36.299Z,44.58
2018-08-31T10:46:06.117Z,43.68
2018-08-31T10:48:35.860Z,44.04
2018-08-31T10:51:05.809Z,41.87
2018-08-31T10:53:35.887Z,41.41
2018-08-31T10:56:05.941Z,41.06
2018-08-31T10:58:35.950Z,41.21
2018-08-31T11:01:05.231Z,41.31
2018-08-31T11:03:34.484Z,42.08
2018-08-31T11:06:03.868Z,41.00
2018-08-31T11:08:33.125Z,39.76
2018-08-31T11:11:02.421Z,40.85
2018-08-31T11:13:34.394Z,40.31
2018-08-31T11:16:04.438Z,40.02
2018-08-31T11:18:34.428Z,40.04
2018-08-31T11:21:04.550Z,38.62
2018-08-31T11:23:34.524Z,38.18
2018-08-31T11:26:04.488Z,36.54
2018-08-31T11:28:34.511Z,37.54
2018-08-31T11:31:03.741Z,38.20
2018-08-31T11:33:32.956Z,36.47
2018-08-31T11:36:02.161Z,36.47
2018-08-31T11:38:31.425Z,37.29
2018-08-31T11:41:01.384Z,37.97
2018-08-31T11:43:31.725Z,36.88
2018-08-31T11:46:01.669Z,37.35
2018-08-31T11:48:31.689Z,38.15
2018-08-31T11:51:01.954Z,39.20
2018-08-31T11:53:31.911Z,37.80
2018-08-31T11:56:02.199Z,36.37
2018-08-31T11:58:32.167Z,36.81
2018-08-31T12:01:01.535Z,35.87
2018-08-31T12:03:30.777Z,34.06
2018-08-31T12:06:00.056Z,32.32
2018-08-31T12:08:29.390Z,30.18
2018-08-31T12:10:59.295Z,33.10
2018-08-31T12:13:29.301Z,35.56
2018-08-31T12:15:59.298Z,35.65
2018-08-31T12:18:29.178Z,35.73
2018-08-31T12:20:59.235Z,35.63
2018-08-31T12:23:29.101Z,35.24
2018-08-31T12:25:59.269Z,32.72
2018-08-31T12:28:28.473Z,35.01
2018-08-31T12:30:57.783Z,33.45
2018-08-31T12:33:27.114Z,33.47
2018-08-31T12:35:56.370Z,33.63
2018-08-31T12:38:26.309Z,33.67
2018-08-31T12:40:56.280Z,33.35
2018-08-31T12:43:26.254Z,32.26
2018-08-31T12:45:56.190Z,33.46
2018-08-31T12:48:26.201Z,33.45
2018-08-31T12:50:56.072Z,32.85
2018-08-31T12:53:25.999Z,32.13
2018-08-31T12:55:56.082Z,32.17
2018-08-31T12:58:25.494Z,29.54
2018-08-31T13:00:54.752Z,31.68
2018-08-31T13:03:24.090Z,30.13
2018-08-31T13:05:53.378Z,30.02
2018-08-31T13:08:23.408Z,29.74
2018-08-31T13:10:53.434Z,31.15
2018-08-31T13:13:23.376Z,32.93
2018-08-31T13:15:53.427Z,32.87
2018-08-31T13:18:23.364Z,32.57
2018-08-31T13:20:54.145Z,32.78
2018-08-31T13:23:24.369Z,31.35
2018-08-31T13:25:53.666Z,31.91
2018-08-31T13:28:22.915Z,32.65
2018-08-31T13:30:52.263Z,33.30
2018-08-31T13:33:21.568Z,31.77
2018-08-31T13:35:51.025Z,31.02
2018-08-31T13:38:20.993Z,31.34
2018-08-31T13:40:51.091Z,32.10
2018-08-31T13:43:21.050Z,31.42
2018-08-31T13:45:50.956Z,31.92
2018-08-31T13:48:20.944Z,31.22
2018-08-31T13:50:50.855Z,31.55
2018-08-31T13:53:21.291Z,30.74
2018-08-31T13:55:50.684Z,28.40
2018-08-31T13:58:20.309Z,28.88
2018-08-31T14:00:49.748Z,28.85
2018-08-31T14:03:19.157Z,29.19
2018-08-31T14:05:49.211Z,28.40
2018-08-31T14:08:19.535Z,28.51
2018-08-31T14:10:49.647Z,29.12
2018-08-31T14:13:19.911Z,28.14
2018-08-31T14:15:50.146Z,30.74
2018-08-31T14:18:20.248Z,29.47
2018-08-31T14:20:50.633Z,27.69
2018-08-31T14:23:20.945Z,26.16
2018-08-31T14:25:50.440Z,26.34
2018-08-31T14:28:19.793Z,25.92
2018-08-31T14:30:49.724Z,25.03
2018-08-31T14:33:19.976Z,32.09
2018-08-31T14:35:49.507Z,26.62
2018-08-31T14:38:19.710Z,24.12
2018-08-31T14:40:49.809Z,26.36
2018-08-31T14:43:20.170Z,25.62
2018-08-31T14:45:50.352Z,29.59
2018-08-31T14:48:21.462Z,30.81
2018-08-31T14:50:50.723Z,29.23
2018-08-31T14:53:20.213Z,29.72
2018-08-31T14:55:49.667Z,29.84
2018-08-31T14:58:19.339Z,29.12
2018-08-31T15:00:48.653Z,28.66
2018-08-31T15:03:18.364Z,27.03
2018-08-31T15:05:47.902Z,28.60
2018-08-31T15:08:17.356Z,28.08
2018-08-31T15:10:47.314Z,29.22
2018-08-31T15:13:16.818Z,29.89
2018-08-31T15:15:46.435Z,29.62
2018-08-31T15:18:16.062Z,30.87
2018-08-31T15:20:45.499Z,29.82
2018-08-31T15:23:15.641Z,29.05
2018-08-31T15:25:46.097Z,29.38
2018-08-31T15:28:16.591Z,28.81
2018-08-31T15:30:46.642Z,28.33
2018-08-31T15:33:16.632Z,28.93
2018-08-31T15:35:46.302Z,29.07
2018-08-31T15:38:16.595Z,30.13
2018-08-31T15:40:46.528Z,29.70
2018-08-31T15:43:16.003Z,30.03
2018-08-31T15:45:45.463Z,29.74
2018-08-31T15:48:14.861Z,30.17
2018-08-31T15:50:44.887Z,29.63
2018-08-31T15:53:14.380Z,30.22
2018-08-31T15:55:43.957Z,30.66
2018-08-31T15:58:13.612Z,30.03
2018-08-31T16:00:43.173Z,29.88
2018-08-31T16:03:12.953Z,29.68
2018-08-31T16:05:42.504Z,30.39
2018-08-31T16:08:12.022Z,29.83
2018-08-31T16:10:41.383Z,30.21
2018-08-31T16:13:10.726Z,30.68
2018-08-31T16:15:40.734Z,30.91
2018-08-31T16:18:10.823Z,31.15
2018-08-31T16:20:40.325Z,30.64
2018-08-31T16:23:10.729Z,31.35
2018-08-31T16:25:40.173Z,31.50
2018-08-31T16:28:09.618Z,31.53
2018-08-31T16:30:39.096Z,31.59
2018-08-31T16:33:08.539Z,31.92
2018-08-31T16:35:37.886Z,32.82
2018-08-31T16:38:07.156Z,32.56
2018-08-31T16:40:36.560Z,31.77
2018-08-31T16:43:06.199Z,31.61
2018-08-31T16:45:35.547Z,31.68
2018-08-31T16:48:05.493Z,32.40
2018-08-31T16:50:35.014Z,31.41
2018-08-31T16:53:04.467Z,31.82
2018-08-31T16:55:33.870Z,32.05
2018-08-31T16:58:03.308Z,31.81
2018-08-31T17:00:32.729Z,31.95
2018-08-31T17:03:02.084Z,33.93
2018-08-31T17:05:31.543Z,32.99
2018-08-31T17:08:01.151Z,33.97
2018-08-31T17:10:30.561Z,33.91
2018-08-31T17:13:00.103Z,33.39
2018-08-31T17:15:29.575Z,33.20
2018-08-31T17:17:59.087Z,33.52
2018-08-31T17:20:28.611Z,33.42
2018-08-31T17:22:58.098Z,33.61
2018-08-31T17:25:36.732Z,34.43
2018-08-31T17:28:10.794Z,34.57
2018-08-31T17:30:40.127Z,34.05
2018-08-31T17:33:14.131Z,34.51
2018-08-31T17:35:48.202Z,34.15
2018-08-31T17:38:17.502Z,34.60
2018-08-31T17:40:46.734Z,34.92
2018-08-31T17:43:17.055Z,35.11
2018-08-31T17:45:46.518Z,35.54
2018-08-31T17:48:15.738Z,34.79
2018-08-31T17:50:45.075Z,35.13
2018-08-31T17:53:14.631Z,35.67
2018-08-31T17:55:43.740Z,35.45
2018-08-31T17:58:13.170Z,35.59
2018-08-31T18:00:42.463Z,35.85
2018-08-31T18:03:11.410Z,36.09
2018-08-31T18:05:40.330Z,36.94
2018-08-31T18:08:09.274Z,36.91
2018-08-31T18:10:38.230Z,36.82
2018-08-31T18:13:07.149Z,38.03
2018-08-31T18:15:36.167Z,38.76
2018-08-31T18:18:05.129Z,38.26
2018-08-31T18:20:34.113Z,37.80
2018-08-31T18:23:03.234Z,38.41
2018-08-31T18:25:32.407Z,39.01
2018-08-31T18:28:01.434Z,38.91
2018-08-31T18:30:30.602Z,39.35
2018-08-31T18:32:59.725Z,38.73
2018-08-31T18:35:29.111Z,38.88
2018-08-31T18:37:58.403Z,39.33
2018-08-31T18:40:27.910Z,38.69
2018-08-31T18:42:59.110Z,38.77
2018-08-31T18:45:28.640Z,39.20
2018-08-31T18:47:58.067Z,38.97
2018-08-31T18:50:27.482Z,39.83
2018-08-31T18:52:56.794Z,39.93
2018-08-31T18:55:26.316Z,39.94
2018-08-31T18:57:55.764Z,40.08
2018-08-31T19:00:24.922Z,40.16
2018-08-31T19:02:54.129Z,39.94
2018-08-31T19:05:23.253Z,40.31
2018-08-31T19:07:52.470Z,40.76
2018-08-31T19:10:21.641Z,40.61
2018-08-31T19:12:50.856Z,39.91
2018-08-31T19:15:20.150Z,43.08
2018-08-31T19:17:49.286Z,44.85
2018-08-31T19:20:18.579Z,44.37
2018-08-31T19:22:47.772Z,44.45
2018-08-31T19:25:17.236Z,43.85
2018-08-31T19:27:47.016Z,43.41
2018-08-31T19:30:16.291Z,42.48
2018-08-31T19:32:45.742Z,43.70
2018-08-31T19:35:14.946Z,43.76
2018-08-31T19:37:44.340Z,45.00
2018-08-31T19:40:13.741Z,44.83
2018-08-31T19:42:42.949Z,43.59
2018-08-31T19:45:12.161Z,41.38
2018-08-31T19:47:41.446Z,41.59
2018-08-31T19:50:10.785Z,42.02
2018-08-31T19:52:40.108Z,41.66
2018-08-31T19:55:09.349Z,41.68
2018-08-31T19:57:38.790Z,41.26
2018-08-31T20:00:08.454Z,40.83
2018-08-31T20:02:37.921Z,40.92
2018-08-31T20:05:07.390Z,41.40
2018-08-31T20:07:36.764Z,41.14
2018-08-31T20:10:06.249Z,41.15
2018-08-31T20:12:35.849Z,41.78
2018-08-31T20:15:05.072Z,41.11
2018-08-31T20:17:34.459Z,41.92
2018-08-31T20:20:04.293Z,40.73
2018-08-31T20:22:33.704Z,41.21
2018-08-31T20:25:03.234Z,41.43
2018-08-31T20:27:32.462Z,40.96
2018-08-31T20:30:01.910Z,41.25
2018-08-31T20:32:31.307Z,41.04
2018-08-31T20:35:00.678Z,41.57
2018-08-31T20:37:29.912Z,40.88
2018-08-31T20:39:59.344Z,40.91
2018-08-31T20:42:28.790Z,41.21
2018-08-31T20:44:58.154Z,41.04
2018-08-31T20:47:27.495Z,40.81
2018-08-31T20:49:56.830Z,40.61
2018-08-31T20:52:26.207Z,41.00
2018-08-31T20:54:55.774Z,41.47
2018-08-31T20:57:25.132Z,41.59
2018-08-31T20:59:54.873Z,42.04
2018-08-31T21:02:24.633Z,41.98
2018-08-31T21:04:53.952Z,42.27
2018-08-31T21:07:23.318Z,42.29
2018-08-31T21:09:52.922Z,42.30
2018-08-31T21:12:22.269Z,42.46
2018-08-31T21:14:51.866Z,42.62
2018-08-31T21:17:23.037Z,43.15
2018-08-31T21:19:52.383Z,42.91
2018-08-31T21:22:21.659Z,42.58
2018-08-31T21:24:51.023Z,42.36
2018-08-31T21:27:20.373Z,42.67
2018-08-31T21:29:49.625Z,42.24
2018-08-31T21:32:19.243Z,42.66
2018-08-31T21:34:48.428Z,42.14
2018-08-31T21:37:17.853Z,42.54
2018-08-31T21:39:47.045Z,41.99
2018-08-31T21:42:16.353Z,42.28
2018-08-31T21:44:45.638Z,42.30
2018-08-31T21:47:14.932Z,42.41
2018-08-31T21:49:44.214Z,42.40
2018-08-31T21:52:13.543Z,41.88
2018-08-31T21:54:42.886Z,41.87
2018-08-31T21:57:12.264Z,42.73
2018-08-31T21:59:41.417Z,43.39
2018-08-31T22:02:10.842Z,43.29
2018-08-31T22:04:40.113Z,43.31
2018-08-31T22:07:09.445Z,43.25
2018-08-31T22:09:39.044Z,44.18
2018-08-31T22:12:08.450Z,43.33
2018-08-31T22:14:37.722Z,44.72
2018-08-31T22:17:07.077Z,44.76
2018-08-31T22:19:36.368Z,44.52
2018-08-31T22:22:05.662Z,44.48
2018-08-31T22:24:34.930Z,44.57
2018-08-31T22:27:04.334Z,44.97
2018-08-31T22:29:33.965Z,46.28
2018-08-31T22:32:03.373Z,45.44
2018-08-31T22:34:32.844Z,45.90
2018-08-31T22:37:02.209Z,45.38
2018-08-31T22:39:31.475Z,44.86
2018-08-31T22:42:00.758Z,45.47
2018-08-31T22:44:32.863Z,45.74
2018-08-31T22:47:02.153Z,45.33
2018-08-31T22:49:31.454Z,45.42
2018-08-31T22:52:00.743Z,45.67
2018-08-31T22:54:30.033Z,46.33
2018-08-31T22:56:59.353Z,46.35
2018-08-31T22:59:28.742Z,46.60
2018-08-31T23:01:58.072Z,45.81
2018-08-31T23:04:27.446Z,45.76
2018-08-31T23:06:56.751Z,45.16
2018-08-31T23:09:26.237Z,46.20
2018-08-31T23:11:55.586Z,45.64
2018-08-31T23:14:24.913Z,45.37
2018-08-31T23:16:54.314Z,46.42
2018-08-31T23:19:23.504Z,45.81
2018-08-31T23:21:52.760Z,44.98
2018-08-31T23:24:22.045Z,45.99
2018-08-31T23:26:51.394Z,46.96
2018-08-31T23:29:20.757Z,46.14
2018-08-31T23:31:50.145Z,46.61
2018-08-31T23:34:19.418Z,46.10
2018-08-31T23:36:48.880Z,45.88
2018-08-31T23:39:18.076Z,46.52
2018-08-31T23:41:47.521Z,45.63
2018-08-31T23:44:17.388Z,46.06
2018-08-31T23:46:47.519Z,46.17
2018-08-31T23:49:16.762Z,46.55
2018-08-31T23:51:46.082Z,46.51
2018-08-31T23:54:15.521Z,47.33
2018-08-31T23:56:44.817Z,46.66
2018-08-31T23:59:14.149Z,47.37
